Nearby METAR Reports

 

KSJC - San Jose, California, USA
Distance from station: NE 9mi, 14km
Updated: Thu, Jun-20-2019 3:53pm CDT
Few Clouds
Few Clouds
 Wind from NW
Wind: NW 15 mph , 24 km/h
Temperature: 77°F , 25°C
Dew Point: 61°F , 16°C
Humidity: 57%
Barometer: 29.87 inHg , 1011.5 hPa
Clouds: Few Clouds
Visibility: 10 miles , 16 km
Cloud details: Few Clouds 1600 ft
Few Clouds 2500 ft
2019/06/20 20:53 KSJC 202053Z 32013KT 10SM FEW016 FEW025 25/16 A2987 RMK AO2 SLP113 T02500161 56008
KNUQ - Moffett Nas/Mtn, California, USA
Distance from station: N 9mi, 14km
Updated: Thu, Jun-20-2019 3:56pm CDT
Clear
Clear
 Wind from NNW
Wind: NNW 13 mph , 20 km/h
Temperature: 75°F , 24°C
Dew Point: 57°F , 14°C
Humidity: 54%
Barometer: 29.88 inHg , 1011.9 hPa
Clouds: Clear
Visibility: 10 miles , 16 km
2019/06/20 20:56 KNUQ 202056Z 34011KT 10SM CLR 24/14 A2988 RMK AO2 SLP119 T02390144 58006
 
KPAO - Palo Alto, California, USA
Distance from station: NNW 14mi, 23km
Updated: Thu, Jun-20-2019 2:47pm CDT
NOT Current
Clear
Clear
 Wind from N
Wind: N 7 mph , 11 km/h
Temperature: 72°F , 22°C
Dew Point: 57°F , 14°C
Humidity: 61%
Barometer: 29.89 inHg , 1012.2 hPa
Clouds: Clear
Visibility: 10 miles , 16 km
2019/06/20 19:47 KPAO 201947Z 36006KT 10SM SKC 22/14 A2989
KRHV - San Jose/Reid, California, USA
Distance from station: ENE 12mi, 19km
Updated: Thu, Jun-20-2019 3:47pm CDT
Clear
Clear
 Wind from WNW
Wind: WNW 6 mph , 9 km/h
Temperature: 79°F , 26°C
Dew Point: 55°F , 13°C
Humidity: 45%
Barometer: 29.87 inHg , 1011.5 hPa
Clouds: Clear
Visibility: 10 miles , 16 km
2019/06/20 20:47 KRHV 202047Z 30005KT 10SM SKC 26/13 A2987
 
KOAK - Oakland, California, USA
Distance from station: NNW 31mi, 50km
Updated: Thu, Jun-20-2019 3:53pm CDT
Few Clouds
Few Clouds
 Wind from NW
Wind: NW 15 mph , 24 km/h
Temperature: 70°F , 21°C
Dew Point: 55°F , 13°C
Humidity: 60%
Barometer: 29.89 inHg , 1012.2 hPa
Clouds: Few Clouds
Visibility: 10 miles , 16 km
Cloud details: Few Clouds 800 ft
2019/06/20 20:53 KOAK 202053Z 31013KT 10SM FEW008 21/13 A2989 RMK AO2 SLP122 T02110128 58005
KSQL - San Carlos Airpo, California, USA
Distance from station: NW 21mi, 34km
Updated: Thu, Jun-20-2019 3:48pm CDT
Clear
Clear
 Wind from W
Wind: W 12 mph , 19 km/h
Temperature: 68°F , 20°C
Dew Point: 55°F , 13°C
Humidity: 64%
Barometer: 29.89 inHg , 1012.2 hPa
Clouds: Clear
Visibility: 10 miles , 16 km
2019/06/20 20:48 KSQL 202048Z 27010KT 10SM SKC 20/13 A2989
 
KSFO - San Francisco, California, USA
Distance from station: NW 30mi, 49km
Updated: Thu, Jun-20-2019 3:56pm CDT
Few Clouds
Few Clouds
 Wind from WSW
Wind: WSW 6 mph , 9 km/h
Temperature: 72°F , 22°C
Dew Point: 54°F , 12°C
Humidity: 53%
Barometer: 29.88 inHg , 1011.9 hPa
Clouds: Few Clouds
Visibility: 10 miles , 16 km
Cloud details: Few Clouds 1000 ft
2019/06/20 20:56 KSFO 202056Z 24005KT 10SM FEW010 22/12 A2988 RMK AO2 SLP117 T02170117 58006
KE16 - San Martin, California, USA
Distance from station: ESE 27mi, 43km
Updated: Thu, May-30-2019 2:30pm CDT
NOT Current

 Wind from SE
Wind: SE 6 mph , 9 km/h
Temperature: 64°F , 18°C
Dew Point: 52°F , 11°C
Humidity: 64%
Barometer: 29.96 inHg , 1014.6 hPa
2019/05/30 19:30 KE16 301930Z AUTO 13005KT 18/11 A2996 RMK AO2 PWINO PNO
 
KWVI - Watsonville, California, USA
Distance from station: SSE 27mi, 44km
Updated: Thu, Jun-20-2019 3:53pm CDT
Overcast
Overcast
 Wind from W
Wind: W 12 mph , 19 km/h
Temperature: 64°F , 18°C
Dew Point: 55°F , 13°C
Humidity: 73%
Barometer: 29.94 inHg , 1013.9 hPa
Clouds: Overcast
Visibility: 10 miles , 16 km
Cloud details: Overcast 1600 ft
2019/06/20 20:53 KWVI 202053Z AUTO 27010KT 10SM OVC016 18/13 A2994 RMK AO2 SLP137 T01780128 58003 $
KHAF - Half Moon Bay, California, USA
Distance from station: WNW 31mi, 50km
Updated: Thu, Jun-20-2019 4:20pm CDT
Haze, Overcast
Haze, Overcast
 Wind from SSE
Wind: SSE 10 mph , 17 km/h, Gust: 16 mph , 26 km/h
Temperature: 61°F , 16°C
Dew Point: 54°F , 12°C
Humidity: 77%
Barometer: 29.94 inHg , 1013.9 hPa
Summary: Haze
Clouds: Overcast
Visibility: 5 miles , 8 km
Cloud details: Partly cloudy 1300 ft
Overcast 2200 ft
2019/06/20 21:20 KHAF 202120Z AUTO 16009G14KT 5SM HZ SCT013 OVC022 16/12 A2994 RMK AO2
 
KHWD - Hayward, California, USA
Distance from station: N 28mi, 44km
Updated: Thu, Jun-20-2019 3:54pm CDT
Clear
Clear
 Wind from WNW
Wind: WNW 13 mph , 20 km/h
Temperature: 72°F , 22°C
Dew Point: 55°F , 13°C
Humidity: 57%
Barometer: 29.88 inHg , 1011.9 hPa
Clouds: Clear
Visibility: 10 miles , 16 km
2019/06/20 20:54 KHWD 202054Z 30011KT 10SM CLR 22/13 A2988 RMK AO2 SLP127 T02170133 58005
KLVK - Livermore, California, USA
Distance from station: NNE 31mi, 51km
Updated: Thu, Jun-20-2019 3:53pm CDT
Clear
Clear
 Wind from WNW
Wind: WNW 14 mph , 22 km/h
Temperature: 79°F , 26°C
Dew Point: 55°F , 13°C
Humidity: 45%
Barometer: 29.84 inHg , 1010.5 hPa
Clouds: Clear
Visibility: 10 miles , 16 km
2019/06/20 20:53 KLVK 202053Z 29012KT 10SM CLR 26/13 A2984 RMK AO2 SLP101 T02560128 58009